createdAt,value
2019-01-31T00:01:54.000Z,17.63
2019-01-31T00:04:56.821Z,19.10
2019-01-31T00:08:14.812Z,18.50
2019-01-31T00:11:02.860Z,17.10
2019-01-31T00:14:07.189Z,18.50
2019-01-31T00:17:05.812Z,17.37
2019-01-31T00:20:02.638Z,18.03
2019-01-31T00:23:08.550Z,18.27
2019-01-31T00:25:59.575Z,17.70
2019-01-31T00:28:58.909Z,17.07
2019-01-31T00:31:54.390Z,17.57
2019-01-31T00:35:37.589Z,16.47
2019-01-31T00:38:29.752Z,16.13
2019-01-31T00:41:26.918Z,16.13
2019-01-31T00:44:37.127Z,15.83
2019-01-31T00:47:41.347Z,16.23
2019-01-31T00:50:57.590Z,15.97
2019-01-31T00:53:40.173Z,16.37
2019-01-31T00:56:33.640Z,17.60
2019-01-31T00:59:33.566Z,16.43
2019-01-31T01:02:43.539Z,16.40
2019-01-31T01:05:52.440Z,16.50
2019-01-31T01:09:11.190Z,15.87
2019-01-31T01:12:24.549Z,16.80
2019-01-31T01:15:22.480Z,16.43
2019-01-31T01:18:15.154Z,17.37
2019-01-31T01:21:08.081Z,16.97
2019-01-31T01:23:51.881Z,16.30
2019-01-31T01:27:09.287Z,15.93
2019-01-31T01:30:09.508Z,16.40
2019-01-31T01:33:20.456Z,15.57
2019-01-31T01:36:27.864Z,15.97
2019-01-31T01:39:25.853Z,16.83
2019-01-31T01:42:04.991Z,15.87
2019-01-31T01:45:30.068Z,16.13
2019-01-31T01:48:46.044Z,16.73
2019-01-31T01:51:37.371Z,16.77
2019-01-31T01:54:39.828Z,14.90
2019-01-31T01:58:02.115Z,16.43
2019-01-31T02:01:20.679Z,15.53
2019-01-31T02:04:04.314Z,16.03
2019-01-31T02:07:08.295Z,15.40
2019-01-31T02:10:26.433Z,15.27
2019-01-31T02:13:37.879Z,14.77
2019-01-31T02:16:42.846Z,15.90
2019-01-31T02:19:39.815Z,14.77
2019-01-31T02:22:36.701Z,14.73
2019-01-31T02:25:13.982Z,15.40
2019-01-31T02:27:58.869Z,15.63
2019-01-31T02:31:16.976Z,16.00
2019-01-31T02:34:29.536Z,15.67
2019-01-31T02:37:34.222Z,15.73
2019-01-31T02:40:37.745Z,16.10
2019-01-31T02:43:44.807Z,15.70
2019-01-31T02:46:40.228Z,15.40
2019-01-31T02:49:41.570Z,15.30
2019-01-31T02:52:52.682Z,15.87
2019-01-31T02:55:57.276Z,15.63
2019-01-31T02:58:50.394Z,15.47
2019-01-31T03:01:39.123Z,15.80
2019-01-31T03:04:36.135Z,15.43
2019-01-31T03:07:40.872Z,15.90
2019-01-31T03:10:29.876Z,15.80
2019-01-31T03:13:30.726Z,16.30
2019-01-31T03:16:26.479Z,15.90
2019-01-31T03:19:35.603Z,16.13
2019-01-31T03:22:44.863Z,16.17
2019-01-31T03:26:19.385Z,16.10
2019-01-31T03:29:38.209Z,17.23
2019-01-31T03:32:23.391Z,16.37
2019-01-31T03:35:32.240Z,15.97
2019-01-31T03:38:34.830Z,16.03
2019-01-31T03:41:39.131Z,16.07
2019-01-31T03:44:25.776Z,16.63
2019-01-31T03:47:37.752Z,16.33
2019-01-31T03:50:37.941Z,16.83
2019-01-31T03:53:41.521Z,16.40
2019-01-31T03:56:59.256Z,15.90
2019-01-31T03:59:45.309Z,16.60
2019-01-31T04:02:42.044Z,15.93
2019-01-31T04:05:35.014Z,16.67
2019-01-31T04:08:04.552Z,16.40
2019-01-31T04:10:34.357Z,17.90
2019-01-31T04:13:04.027Z,16.13
2019-01-31T04:15:33.204Z,17.50
2019-01-31T04:18:02.753Z,17.20
2019-01-31T04:20:31.980Z,16.70
2019-01-31T04:23:01.249Z,16.47
2019-01-31T04:25:30.516Z,16.53
2019-01-31T04:28:00.184Z,17.20
2019-01-31T04:30:29.727Z,17.73
2019-01-31T04:32:59.360Z,17.47
2019-01-31T04:35:28.714Z,16.67
2019-01-31T04:37:58.256Z,17.73
2019-01-31T04:40:31.596Z,17.57
2019-01-31T04:42:58.817Z,18.03
2019-01-31T04:45:28.156Z,18.20
2019-01-31T04:47:57.443Z,18.83
2019-01-31T04:50:26.831Z,19.37
2019-01-31T04:52:56.057Z,18.43
2019-01-31T04:55:25.381Z,19.70
2019-01-31T04:57:54.678Z,20.87
2019-01-31T05:00:24.600Z,20.23
2019-01-31T05:02:53.983Z,22.47
2019-01-31T05:05:23.412Z,22.80
2019-01-31T05:07:52.595Z,22.83
2019-01-31T05:10:22.363Z,25.57
2019-01-31T05:12:51.824Z,23.30
2019-01-31T05:15:21.357Z,25.43
2019-01-31T05:17:50.891Z,27.03
2019-01-31T05:20:20.268Z,29.20
2019-01-31T05:22:49.549Z,30.57
2019-01-31T05:25:18.823Z,25.87
2019-01-31T05:27:48.111Z,26.37
2019-01-31T05:30:18.035Z,26.67
2019-01-31T05:32:47.384Z,26.83
2019-01-31T05:35:18.301Z,25.80
2019-01-31T05:37:47.851Z,24.73
2019-01-31T05:40:18.122Z,23.60
2019-01-31T05:42:47.431Z,24.10
2019-01-31T05:45:17.195Z,24.13
2019-01-31T05:47:46.816Z,30.20
2019-01-31T05:50:17.359Z,27.60
2019-01-31T05:52:46.710Z,24.17
2019-01-31T05:55:16.354Z,26.90
2019-01-31T05:57:45.617Z,24.90
2019-01-31T06:00:18.701Z,24.33
2019-01-31T06:02:48.014Z,23.20
2019-01-31T06:05:17.476Z,21.83
2019-01-31T06:07:46.707Z,21.97
2019-01-31T06:10:16.067Z,22.03
2019-01-31T06:12:45.296Z,20.40
2019-01-31T06:15:15.793Z,21.13
2019-01-31T06:17:45.349Z,22.83
2019-01-31T06:20:18.156Z,22.57
2019-01-31T06:22:47.521Z,20.77
2019-01-31T06:25:17.126Z,24.40
2019-01-31T06:27:47.000Z,24.67
2019-01-31T06:30:16.999Z,22.53
2019-01-31T06:32:46.540Z,23.13
2019-01-31T06:35:16.735Z,20.50
2019-01-31T06:37:46.213Z,21.63
2019-01-31T06:40:17.506Z,26.37
2019-01-31T06:42:47.224Z,23.20
2019-01-31T06:45:19.957Z,21.07
2019-01-31T06:47:51.972Z,20.47
2019-01-31T06:50:21.310Z,19.93
2019-01-31T06:52:50.657Z,19.33
2019-01-31T06:55:19.989Z,23.10
2019-01-31T06:57:49.279Z,18.73
2019-01-31T07:00:20.430Z,21.63
2019-01-31T07:02:49.848Z,20.53
2019-01-31T07:05:19.066Z,19.27
2019-01-31T07:07:48.472Z,20.90
2019-01-31T07:10:21.988Z,19.00
2019-01-31T07:12:51.652Z,19.13
2019-01-31T07:15:22.089Z,18.23
2019-01-31T07:17:51.379Z,18.50
2019-01-31T07:20:20.657Z,19.23
2019-01-31T07:22:51.473Z,20.60
2019-01-31T07:25:25.239Z,19.60
2019-01-31T07:27:54.482Z,22.37
2019-01-31T07:30:26.731Z,20.57
2019-01-31T07:32:56.220Z,20.73
2019-01-31T07:35:25.773Z,21.47
2019-01-31T07:38:00.924Z,21.43
2019-01-31T07:40:30.187Z,23.90
2019-01-31T07:42:59.731Z,22.70
2019-01-31T07:45:30.520Z,21.67
2019-01-31T07:48:00.084Z,23.97
2019-01-31T07:50:29.453Z,23.90
2019-01-31T07:52:58.960Z,23.03
2019-01-31T07:55:30.223Z,24.40
2019-01-31T07:57:59.797Z,23.43
2019-01-31T08:00:29.172Z,21.93
2019-01-31T08:02:58.560Z,23.40
2019-01-31T08:05:27.908Z,21.47
2019-01-31T08:07:58.260Z,22.47
2019-01-31T08:10:30.325Z,24.47
2019-01-31T08:13:00.160Z,24.10
2019-01-31T08:15:29.750Z,21.93
2019-01-31T08:17:59.086Z,20.93
2019-01-31T08:20:28.646Z,21.20
2019-01-31T08:23:00.095Z,19.63
2019-01-31T08:25:29.629Z,20.00
2019-01-31T08:27:58.924Z,18.07
2019-01-31T08:30:30.564Z,17.63
2019-01-31T08:33:00.232Z,17.47
2019-01-31T08:35:29.699Z,16.23
2019-01-31T08:37:59.060Z,17.57
2019-01-31T08:40:28.631Z,16.73
2019-01-31T08:42:58.229Z,16.77
2019-01-31T08:45:27.795Z,18.67
2019-01-31T08:47:57.089Z,21.80
2019-01-31T08:50:27.613Z,21.67
2019-01-31T08:52:57.187Z,20.37
2019-01-31T08:55:26.849Z,22.83
2019-01-31T08:57:56.488Z,23.30
2019-01-31T09:00:27.753Z,23.27
2019-01-31T09:02:57.377Z,25.70
2019-01-31T09:05:27.045Z,20.27
2019-01-31T09:07:56.643Z,24.17
2019-01-31T09:10:28.222Z,23.40
2019-01-31T09:12:58.077Z,24.90
2019-01-31T09:15:27.433Z,24.70
2019-01-31T09:17:57.445Z,23.03
2019-01-31T09:20:30.519Z,22.20
2019-01-31T09:23:25.395Z,22.17
2019-01-31T09:26:37.485Z,21.47
2019-01-31T09:29:37.551Z,22.23
2019-01-31T09:32:59.969Z,21.43
2019-01-31T09:36:10.082Z,23.03
2019-01-31T09:39:12.093Z,24.07
2019-01-31T09:42:08.837Z,22.83
2019-01-31T09:45:24.784Z,22.67
2019-01-31T09:48:38.435Z,21.83
2019-01-31T09:51:58.778Z,23.87
2019-01-31T09:55:10.645Z,25.67
2019-01-31T09:58:07.080Z,27.57
2019-01-31T10:01:09.325Z,27.53
2019-01-31T10:03:58.820Z,27.13
2019-01-31T10:07:17.989Z,27.73
2019-01-31T10:10:02.217Z,27.70
2019-01-31T10:13:09.313Z,25.67
2019-01-31T10:16:34.636Z,28.23
2019-01-31T10:19:36.257Z,27.87
2019-01-31T10:22:44.113Z,28.73
2019-01-31T10:25:50.070Z,23.83
2019-01-31T10:28:57.744Z,25.87
2019-01-31T10:32:05.345Z,27.20
2019-01-31T10:35:07.056Z,22.47
2019-01-31T10:38:14.581Z,24.00
2019-01-31T10:41:13.084Z,20.67
2019-01-31T10:44:28.158Z,27.63
2019-01-31T10:47:24.301Z,22.83
2019-01-31T10:50:33.431Z,19.27
2019-01-31T10:53:55.712Z,21.50
2019-01-31T10:56:53.734Z,20.93
2019-01-31T11:00:05.783Z,18.63
2019-01-31T11:03:28.298Z,22.07
2019-01-31T11:06:20.525Z,17.47
2019-01-31T11:09:25.181Z,17.80
2019-01-31T11:12:31.073Z,18.37
2019-01-31T11:15:37.268Z,17.50
2019-01-31T11:18:47.850Z,17.87
2019-01-31T11:22:17.423Z,19.90
2019-01-31T11:25:23.607Z,22.87
2019-01-31T11:28:20.203Z,18.80
2019-01-31T11:31:17.037Z,17.83
2019-01-31T11:34:36.958Z,18.57
2019-01-31T11:37:30.959Z,17.23
2019-01-31T11:40:39.743Z,18.10
2019-01-31T11:43:43.389Z,18.43
2019-01-31T11:46:49.119Z,17.67
2019-01-31T11:49:40.771Z,19.00
2019-01-31T11:52:45.743Z,18.07
2019-01-31T11:55:22.789Z,18.33
2019-01-31T11:58:42.116Z,18.97
2019-01-31T12:01:11.400Z,19.43
2019-01-31T12:03:40.699Z,19.37
2019-01-31T12:06:10.085Z,19.33
2019-01-31T12:08:39.610Z,18.93
2019-01-31T12:11:08.980Z,20.17
2019-01-31T12:13:38.405Z,20.00
2019-01-31T12:16:07.885Z,20.80
2019-01-31T12:18:37.757Z,21.03
2019-01-31T12:21:07.150Z,21.07
2019-01-31T12:23:36.754Z,22.33
2019-01-31T12:26:06.140Z,21.03
2019-01-31T12:28:35.761Z,20.13
2019-01-31T12:31:10.404Z,19.93
2019-01-31T12:33:39.992Z,21.80
2019-01-31T12:36:09.925Z,20.67
2019-01-31T12:38:39.480Z,20.40
2019-01-31T12:41:08.837Z,20.40
2019-01-31T12:43:38.190Z,18.93
2019-01-31T12:46:13.708Z,18.43
2019-01-31T12:48:43.009Z,18.17
2019-01-31T12:51:15.794Z,18.80
2019-01-31T12:53:44.995Z,19.43
2019-01-31T12:56:14.301Z,18.57
2019-01-31T12:58:44.222Z,18.20
2019-01-31T13:01:14.839Z,17.63
2019-01-31T13:03:44.198Z,17.80
2019-01-31T13:06:13.461Z,19.13
2019-01-31T13:08:42.661Z,19.70
2019-01-31T13:11:12.246Z,18.63
2019-01-31T13:13:46.153Z,18.03
2019-01-31T13:16:12.566Z,18.90
2019-01-31T13:18:41.952Z,17.97
2019-01-31T13:21:12.804Z,18.63
2019-01-31T13:23:42.319Z,18.77
2019-01-31T13:26:11.612Z,18.53
2019-01-31T13:28:41.442Z,17.67
2019-01-31T13:31:10.796Z,17.57
2019-01-31T13:33:40.145Z,16.97
2019-01-31T13:36:14.611Z,17.07
2019-01-31T13:38:44.184Z,16.60
2019-01-31T13:41:13.458Z,16.87
2019-01-31T13:43:42.657Z,17.53
2019-01-31T13:46:11.960Z,17.50
2019-01-31T13:48:41.292Z,16.97
2019-01-31T13:51:10.884Z,17.97
2019-01-31T13:53:40.508Z,18.03
2019-01-31T13:56:10.740Z,18.10
2019-01-31T13:58:40.341Z,17.80
2019-01-31T14:01:10.526Z,17.80
2019-01-31T14:03:39.791Z,18.27
2019-01-31T14:06:09.127Z,17.63
2019-01-31T14:08:38.380Z,17.60
2019-01-31T14:11:07.589Z,15.97
2019-01-31T14:13:36.856Z,16.77
2019-01-31T14:16:06.503Z,16.10
2019-01-31T14:18:35.772Z,16.37
2019-01-31T14:21:04.973Z,16.60
2019-01-31T14:23:34.842Z,16.23
2019-01-31T14:26:04.372Z,16.83
2019-01-31T14:28:33.891Z,15.67
2019-01-31T14:31:03.109Z,16.37
2019-01-31T14:33:32.379Z,17.73
2019-01-31T14:36:02.601Z,17.87
2019-01-31T14:38:31.912Z,18.87
2019-01-31T14:41:01.536Z,17.17
2019-01-31T14:43:31.302Z,19.43
2019-01-31T14:46:00.689Z,19.80
2019-01-31T14:48:30.255Z,18.83
2019-01-31T14:50:59.544Z,20.63
2019-01-31T14:53:29.191Z,20.17
2019-01-31T14:55:58.538Z,19.97
2019-01-31T14:58:27.884Z,19.30
2019-01-31T15:00:57.300Z,19.27
2019-01-31T15:03:26.582Z,19.60
2019-01-31T15:05:56.219Z,19.40
2019-01-31T15:08:25.527Z,19.43
2019-01-31T15:10:55.028Z,18.00
2019-01-31T15:13:24.554Z,19.30
2019-01-31T15:15:54.203Z,18.73
2019-01-31T15:18:23.697Z,18.63
2019-01-31T15:20:53.320Z,18.83
2019-01-31T15:23:22.636Z,19.07
2019-01-31T15:25:51.968Z,19.43
2019-01-31T15:28:21.155Z,19.93
2019-01-31T15:30:50.442Z,19.83
2019-01-31T15:33:20.428Z,19.20
2019-01-31T15:35:53.324Z,19.63
2019-01-31T15:38:22.953Z,20.10
2019-01-31T15:40:52.512Z,20.73
2019-01-31T15:43:21.868Z,20.77
2019-01-31T15:45:51.236Z,21.60
2019-01-31T15:48:20.726Z,21.33
2019-01-31T15:50:50.010Z,20.33
2019-01-31T15:53:22.145Z,21.93
2019-01-31T15:55:50.311Z,20.87
2019-01-31T15:58:20.180Z,21.20
2019-01-31T16:00:54.863Z,19.50
2019-01-31T16:03:25.315Z,19.50
2019-01-31T16:05:54.732Z,18.67
2019-01-31T16:08:24.364Z,19.63
2019-01-31T16:10:54.060Z,18.70
2019-01-31T16:13:23.479Z,18.07
2019-01-31T16:15:53.124Z,19.63
2019-01-31T16:18:22.449Z,20.30
2019-01-31T16:20:52.017Z,19.23
2019-01-31T16:23:21.781Z,20.80
2019-01-31T16:25:51.129Z,19.93
2019-01-31T16:28:20.761Z,17.80
2019-01-31T16:30:50.357Z,18.87
2019-01-31T16:33:20.005Z,19.37
2019-01-31T16:35:49.948Z,19.60
2019-01-31T16:38:19.933Z,19.27
2019-01-31T16:40:49.432Z,19.23
2019-01-31T16:43:19.007Z,18.83
2019-01-31T16:45:48.418Z,19.07
2019-01-31T16:48:17.796Z,20.10
2019-01-31T16:50:47.326Z,18.53
2019-01-31T16:53:16.762Z,18.53
2019-01-31T16:55:46.679Z,19.33
2019-01-31T16:58:16.026Z,20.97
2019-01-31T17:00:45.688Z,19.80
2019-01-31T17:03:15.110Z,18.97
2019-01-31T17:05:44.726Z,19.67
2019-01-31T17:08:14.052Z,18.17
2019-01-31T17:10:43.440Z,18.80
2019-01-31T17:13:12.978Z,18.30
2019-01-31T17:15:42.199Z,18.20
2019-01-31T17:18:11.852Z,19.67
2019-01-31T17:20:43.313Z,18.73
2019-01-31T17:23:12.796Z,18.80
2019-01-31T17:25:42.423Z,18.90
2019-01-31T17:28:11.709Z,18.50
2019-01-31T17:30:41.073Z,18.13
2019-01-31T17:33:10.346Z,18.17
2019-01-31T17:35:41.705Z,16.37
2019-01-31T17:38:11.187Z,15.63
2019-01-31T17:40:42.182Z,15.70
2019-01-31T17:43:12.502Z,14.87
2019-01-31T17:45:42.515Z,14.43
2019-01-31T17:48:15.832Z,14.80
2019-01-31T17:50:46.044Z,14.30
2019-01-31T17:53:15.404Z,13.33
2019-01-31T17:55:44.631Z,13.50
2019-01-31T17:58:14.024Z,13.27
2019-01-31T18:00:47.376Z,12.93
2019-01-31T18:03:16.872Z,12.53
2019-01-31T18:05:46.272Z,12.93
2019-01-31T18:08:15.570Z,13.37
2019-01-31T18:10:45.451Z,13.13
2019-01-31T18:13:16.825Z,14.00
2019-01-31T18:15:46.071Z,12.57
2019-01-31T18:18:15.760Z,13.63
2019-01-31T18:20:45.161Z,13.50
2019-01-31T18:23:14.604Z,13.90
2019-01-31T18:25:46.973Z,14.37
2019-01-31T18:28:16.684Z,13.87
2019-01-31T18:30:48.713Z,14.37
2019-01-31T18:33:18.061Z,14.77
2019-01-31T18:35:47.380Z,14.20
2019-01-31T18:38:16.740Z,15.13
2019-01-31T18:40:45.955Z,14.77
2019-01-31T18:43:16.037Z,14.87
2019-01-31T18:45:52.979Z,15.57
2019-01-31T18:48:16.399Z,16.30
2019-01-31T18:50:45.825Z,16.57
2019-01-31T18:53:15.212Z,17.03
2019-01-31T18:55:44.767Z,18.27
2019-01-31T18:58:15.005Z,18.03
2019-01-31T19:00:46.851Z,17.70
2019-01-31T19:03:16.402Z,16.97
2019-01-31T19:05:46.122Z,17.23
2019-01-31T19:08:15.481Z,17.10
2019-01-31T19:10:44.792Z,16.80
2019-01-31T19:13:14.064Z,18.17
2019-01-31T19:15:46.099Z,18.83
2019-01-31T19:18:15.141Z,20.40
2019-01-31T19:20:44.636Z,22.73
2019-01-31T19:23:13.911Z,34.63
2019-01-31T19:25:43.104Z,29.93
2019-01-31T19:28:13.403Z,24.77
2019-01-31T19:30:43.207Z,22.43
2019-01-31T19:33:12.937Z,21.97
2019-01-31T19:35:42.703Z,23.57
2019-01-31T19:38:12.181Z,22.57
2019-01-31T19:40:45.025Z,24.30
2019-01-31T19:43:14.500Z,24.73
2019-01-31T19:45:48.528Z,24.33
2019-01-31T19:48:18.707Z,24.80
2019-01-31T19:50:48.005Z,25.03
2019-01-31T19:53:18.870Z,23.57
2019-01-31T19:55:48.439Z,25.37
2019-01-31T19:58:18.246Z,23.27
2019-01-31T20:00:47.647Z,22.77
2019-01-31T20:03:17.132Z,22.93
2019-01-31T20:05:46.592Z,20.67
2019-01-31T20:08:15.989Z,21.10
2019-01-31T20:10:45.399Z,20.90
2019-01-31T20:13:14.771Z,21.13
2019-01-31T20:15:44.485Z,21.73
2019-01-31T20:18:14.204Z,21.33
2019-01-31T20:20:43.939Z,22.00
2019-01-31T20:23:13.585Z,21.93
2019-01-31T20:25:43.083Z,21.73
2019-01-31T20:28:12.381Z,20.20
2019-01-31T20:30:41.757Z,21.03
2019-01-31T20:33:11.402Z,20.00
2019-01-31T20:35:41.141Z,20.90
2019-01-31T20:38:10.472Z,19.77
2019-01-31T20:40:42.138Z,20.63
2019-01-31T20:43:11.575Z,19.20
2019-01-31T20:45:41.056Z,19.83
2019-01-31T20:48:10.830Z,18.60
2019-01-31T20:50:42.362Z,20.60
2019-01-31T20:53:12.972Z,20.50
2019-01-31T20:55:42.282Z,18.90
2019-01-31T20:58:11.672Z,18.80
2019-01-31T21:00:43.788Z,18.10
2019-01-31T21:03:13.537Z,18.90
2019-01-31T21:05:43.337Z,19.00
2019-01-31T21:08:19.148Z,18.23
2019-01-31T21:10:50.094Z,19.90
2019-01-31T21:13:19.650Z,20.70
2019-01-31T21:15:48.953Z,20.90
2019-01-31T21:18:18.266Z,20.50
2019-01-31T21:20:47.479Z,19.63
2019-01-31T21:23:17.990Z,18.67
2019-01-31T21:25:47.689Z,19.17
2019-01-31T21:28:17.036Z,20.13
2019-01-31T21:30:46.327Z,19.50
2019-01-31T21:33:15.681Z,20.10
2019-01-31T21:35:45.595Z,18.60
2019-01-31T21:38:14.946Z,19.67
2019-01-31T21:40:44.201Z,20.40
2019-01-31T21:43:13.467Z,19.73
2019-01-31T21:45:42.747Z,17.97
2019-01-31T21:48:12.275Z,17.90
2019-01-31T21:50:41.560Z,18.57
2019-01-31T21:53:11.491Z,18.30
2019-01-31T21:55:41.130Z,17.20
2019-01-31T21:58:10.508Z,16.70
2019-01-31T22:00:39.833Z,16.07
2019-01-31T22:03:09.423Z,16.23
2019-01-31T22:05:38.983Z,16.40
2019-01-31T22:08:08.321Z,14.63
2019-01-31T22:10:37.712Z,14.70
2019-01-31T22:13:07.442Z,16.00
2019-01-31T22:15:37.385Z,16.27
2019-01-31T22:18:07.488Z,14.50
2019-01-31T22:20:36.835Z,14.17
2019-01-31T22:23:06.909Z,14.83
2019-01-31T22:25:36.209Z,15.17
2019-01-31T22:28:05.920Z,15.87
2019-01-31T22:30:37.392Z,14.10
2019-01-31T22:33:08.257Z,14.50
2019-01-31T22:35:37.894Z,13.97
2019-01-31T22:38:07.613Z,13.13
2019-01-31T22:40:37.253Z,13.53
2019-01-31T22:43:06.706Z,13.70
2019-01-31T22:45:36.341Z,13.83
2019-01-31T22:48:07.635Z,12.60
2019-01-31T22:50:37.049Z,13.80
2019-01-31T22:53:06.737Z,13.57
2019-01-31T22:55:36.331Z,12.73
2019-01-31T22:58:06.735Z,13.13
2019-01-31T23:01:26.012Z,12.97
2019-01-31T23:03:55.652Z,11.73
2019-01-31T23:06:25.501Z,12.37
2019-01-31T23:08:54.813Z,11.50
2019-01-31T23:11:24.259Z,11.83
2019-01-31T23:13:53.509Z,11.27
2019-01-31T23:16:22.889Z,12.10
2019-01-31T23:18:52.652Z,11.50
2019-01-31T23:21:22.208Z,11.13
2019-01-31T23:23:51.507Z,10.80
2019-01-31T23:26:20.848Z,10.60
2019-01-31T23:28:50.303Z,10.23
2019-01-31T23:31:19.861Z,10.70
2019-01-31T23:33:52.219Z,10.20
2019-01-31T23:36:21.522Z,10.23
2019-01-31T23:38:51.138Z,9.87
2019-01-31T23:41:20.997Z,9.20
2019-01-31T23:43:50.193Z,10.00
2019-01-31T23:46:19.427Z,9.80
2019-01-31T23:48:50.646Z,9.43
2019-01-31T23:51:20.392Z,9.63
2019-01-31T23:53:50.321Z,9.63
2019-01-31T23:56:19.592Z,10.13
2019-01-31T23:58:48.869Z,9.50
